createdAt,value
2023-07-09T00:01:43.181Z,6.82
2023-07-09T00:04:31.234Z,6.20
2023-07-09T00:07:24.627Z,5.75
2023-07-09T00:10:18.028Z,6.60
2023-07-09T00:13:05.856Z,6.80
2023-07-09T00:16:06.997Z,6.47
2023-07-09T00:18:55.131Z,6.18
2023-07-09T00:21:42.867Z,5.70
2023-07-09T00:24:30.865Z,6.65
2023-07-09T00:27:20.577Z,6.57
2023-07-09T00:30:16.621Z,6.55
2023-07-09T00:33:05.985Z,5.22
2023-07-09T00:35:53.953Z,6.10
2023-07-09T00:38:42.015Z,5.60
2023-07-09T00:41:31.000Z,5.65
2023-07-09T00:44:31.083Z,6.18
2023-07-09T00:47:27.469Z,6.53
2023-07-09T00:50:30.205Z,5.47
2023-07-09T00:53:22.239Z,6.05
2023-07-09T00:56:15.755Z,5.80
2023-07-09T00:59:07.180Z,6.47
2023-07-09T01:01:57.672Z,5.57
2023-07-09T01:04:48.925Z,6.13
2023-07-09T01:07:38.173Z,4.97
2023-07-09T01:10:26.184Z,5.63
2023-07-09T01:13:14.311Z,6.45
2023-07-09T01:16:02.631Z,6.40
2023-07-09T01:18:50.819Z,6.18
2023-07-09T01:21:39.952Z,5.95
2023-07-09T01:24:51.522Z,5.97
2023-07-09T01:27:42.917Z,6.15
2023-07-09T01:30:34.377Z,6.22
2023-07-09T01:33:23.601Z,5.80
2023-07-09T01:36:14.676Z,6.10
2023-07-09T01:39:04.028Z,6.10
2023-07-09T01:41:51.782Z,6.25
2023-07-09T01:44:39.712Z,6.22
2023-07-09T01:47:28.405Z,6.13
2023-07-09T01:50:17.575Z,6.60
2023-07-09T01:53:05.625Z,6.32
2023-07-09T01:55:56.543Z,5.78
2023-07-09T01:58:44.612Z,6.15
2023-07-09T02:01:35.008Z,6.32
2023-07-09T02:04:23.079Z,6.35
2023-07-09T02:07:10.915Z,7.18
2023-07-09T02:09:59.830Z,7.57
2023-07-09T02:12:49.517Z,6.70
2023-07-09T02:15:37.596Z,6.70
2023-07-09T02:18:25.398Z,6.72
2023-07-09T02:21:13.416Z,7.10
2023-07-09T02:24:01.439Z,7.38
2023-07-09T02:26:50.382Z,7.65
2023-07-09T02:29:39.907Z,6.55
2023-07-09T02:32:29.217Z,7.32
2023-07-09T02:35:17.556Z,6.95
2023-07-09T02:38:06.270Z,7.40
2023-07-09T02:40:54.590Z,8.32
2023-07-09T02:43:42.485Z,7.43
2023-07-09T02:46:32.036Z,7.72
2023-07-09T02:49:20.649Z,7.35
2023-07-09T02:52:10.347Z,7.20
2023-07-09T02:54:58.098Z,8.02
2023-07-09T02:57:46.046Z,7.93
2023-07-09T03:00:33.866Z,10.88
2023-07-09T03:03:23.507Z,9.27
2023-07-09T03:06:11.871Z,8.10
2023-07-09T03:08:59.953Z,7.63
2023-07-09T03:11:48.122Z,23.70
2023-07-09T03:14:35.916Z,8.65
2023-07-09T03:17:23.912Z,7.85
2023-07-09T03:20:14.473Z,7.25
2023-07-09T03:23:02.494Z,7.03
2023-07-09T03:25:50.288Z,8.02
2023-07-09T03:28:38.162Z,7.03
2023-07-09T03:31:26.126Z,6.93
2023-07-09T03:34:13.958Z,7.43
2023-07-09T03:37:03.083Z,6.00
2023-07-09T03:39:50.891Z,7.05
2023-07-09T03:42:38.678Z,7.78
2023-07-09T03:45:26.485Z,6.57
2023-07-09T03:48:15.714Z,7.35
2023-07-09T03:51:03.583Z,6.85
2023-07-09T03:53:52.924Z,6.40
2023-07-09T03:56:40.650Z,6.93
2023-07-09T03:59:28.681Z,6.35
2023-07-09T04:02:16.517Z,6.45
2023-07-09T04:05:05.230Z,5.88
2023-07-09T04:07:53.355Z,6.40
2023-07-09T04:10:42.453Z,6.38
2023-07-09T04:13:30.498Z,5.78
2023-07-09T04:16:18.382Z,6.50
2023-07-09T04:19:06.266Z,6.45
2023-07-09T04:21:53.974Z,6.50
2023-07-09T04:24:41.923Z,6.63
2023-07-09T04:27:31.169Z,6.97
2023-07-09T04:30:19.614Z,6.40
2023-07-09T04:33:07.854Z,7.10
2023-07-09T04:35:55.654Z,7.72
2023-07-09T04:38:43.494Z,7.13
2023-07-09T04:41:31.230Z,7.65
2023-07-09T04:44:20.417Z,7.45
2023-07-09T04:47:08.513Z,7.53
2023-07-09T04:49:56.277Z,8.20
2023-07-09T04:52:44.200Z,7.53
2023-07-09T04:55:32.197Z,7.70
2023-07-09T04:58:20.087Z,7.53
2023-07-09T05:01:09.519Z,7.95
2023-07-09T05:03:57.649Z,7.60
2023-07-09T05:06:45.727Z,7.20
2023-07-09T05:09:33.690Z,7.53
2023-07-09T05:12:22.022Z,7.65
2023-07-09T05:15:10.417Z,7.90
2023-07-09T05:17:59.530Z,8.15
2023-07-09T05:20:49.503Z,7.32
2023-07-09T05:23:37.350Z,6.55
2023-07-09T05:26:25.341Z,7.07
2023-07-09T05:29:13.094Z,8.20
2023-07-09T05:32:01.164Z,6.65
2023-07-09T05:34:50.384Z,6.93
2023-07-09T05:37:38.923Z,6.32
2023-07-09T05:40:26.644Z,6.40
2023-07-09T05:43:14.451Z,6.13
2023-07-09T05:46:04.201Z,6.53
2023-07-09T05:48:52.318Z,6.63
2023-07-09T05:51:41.508Z,7.18
2023-07-09T05:54:29.340Z,7.25
2023-07-09T05:57:17.567Z,7.57
2023-07-09T06:00:06.549Z,5.95
2023-07-09T06:02:54.668Z,7.25
2023-07-09T06:05:43.571Z,7.22
2023-07-09T06:08:32.838Z,6.45
2023-07-09T06:11:21.133Z,7.07
2023-07-09T06:14:09.099Z,6.47
2023-07-09T06:16:57.043Z,5.47
2023-07-09T06:19:45.079Z,6.18
2023-07-09T06:22:32.895Z,5.47
2023-07-09T06:25:22.031Z,5.88
2023-07-09T06:28:09.992Z,6.43
2023-07-09T06:30:58.097Z,6.10
2023-07-09T06:33:46.145Z,6.93
2023-07-09T06:36:33.968Z,5.95
2023-07-09T06:39:21.964Z,5.78
2023-07-09T06:42:11.237Z,6.85
2023-07-09T06:44:59.200Z,7.25
2023-07-09T06:47:47.143Z,5.43
2023-07-09T06:50:36.076Z,4.82
2023-07-09T06:53:24.726Z,4.65
2023-07-09T06:56:12.522Z,5.32
2023-07-09T06:59:01.701Z,5.22
2023-07-09T07:01:49.535Z,5.35
2023-07-09T07:04:37.563Z,5.45
2023-07-09T07:07:25.334Z,5.47
2023-07-09T07:10:13.649Z,4.75
2023-07-09T07:13:01.588Z,5.25
2023-07-09T07:15:51.775Z,5.15
2023-07-09T07:18:40.418Z,4.65
2023-07-09T07:21:28.254Z,4.30
2023-07-09T07:24:16.148Z,5.07
2023-07-09T07:27:03.984Z,4.85
2023-07-09T07:29:51.695Z,5.13
2023-07-09T07:32:45.852Z,4.30
2023-07-09T07:35:35.433Z,4.32
2023-07-09T07:38:23.606Z,3.97
2023-07-09T07:41:12.030Z,4.45
2023-07-09T07:44:00.108Z,4.80
2023-07-09T07:46:47.995Z,4.85
2023-07-09T07:49:37.265Z,4.85
2023-07-09T07:52:25.863Z,4.18
2023-07-09T07:55:17.008Z,4.47
2023-07-09T07:58:07.139Z,4.30
2023-07-09T08:00:58.083Z,4.18
2023-07-09T08:03:45.996Z,4.55
2023-07-09T08:06:35.095Z,4.40
2023-07-09T08:09:23.314Z,4.35
2023-07-09T08:12:15.850Z,4.60
2023-07-09T08:15:04.760Z,4.93
2023-07-09T08:17:52.779Z,3.95
2023-07-09T08:20:44.634Z,4.10
2023-07-09T08:23:34.043Z,4.25
2023-07-09T08:26:21.814Z,5.03
2023-07-09T08:29:09.997Z,4.30
2023-07-09T08:31:57.784Z,3.88
2023-07-09T08:35:11.373Z,3.85
2023-07-09T08:37:53.756Z,3.63
2023-07-09T08:40:44.495Z,4.57
2023-07-09T08:43:47.256Z,3.92
2023-07-09T08:46:47.340Z,4.05
2023-07-09T08:49:43.413Z,4.30
2023-07-09T08:52:35.537Z,4.40
2023-07-09T08:55:25.755Z,4.05
2023-07-09T08:58:19.704Z,4.35
2023-07-09T09:01:16.262Z,3.72
2023-07-09T09:04:08.369Z,4.68
2023-07-09T09:07:07.557Z,4.72
2023-07-09T09:10:00.978Z,3.90
2023-07-09T09:13:01.559Z,4.73
2023-07-09T09:15:51.468Z,4.07
2023-07-09T09:18:43.703Z,3.83
2023-07-09T09:21:35.778Z,3.97
2023-07-09T09:24:32.538Z,3.63
2023-07-09T09:27:20.559Z,3.63
2023-07-09T09:30:15.912Z,3.80
2023-07-09T09:33:12.526Z,4.10
2023-07-09T09:36:04.844Z,7.68
2023-07-09T09:38:53.753Z,7.97
2023-07-09T09:41:43.817Z,12.35
2023-07-09T09:44:32.702Z,4.80
2023-07-09T09:47:20.675Z,4.00
2023-07-09T09:50:15.316Z,4.95
2023-07-09T09:53:03.536Z,4.28
2023-07-09T09:55:54.639Z,4.15
2023-07-09T09:58:43.665Z,4.53
2023-07-09T10:01:33.664Z,3.88
2023-07-09T10:04:21.744Z,4.22
2023-07-09T10:07:10.929Z,3.78
2023-07-09T10:09:59.744Z,3.92
2023-07-09T10:12:52.983Z,4.30
2023-07-09T10:15:45.878Z,3.97
2023-07-09T10:18:45.719Z,4.57
2023-07-09T10:21:39.366Z,4.00
2023-07-09T10:24:44.766Z,3.78
2023-07-09T10:27:41.647Z,3.63
2023-07-09T10:30:47.511Z,4.97
2023-07-09T10:33:45.220Z,5.38
2023-07-09T10:36:47.325Z,4.20
2023-07-09T10:39:39.609Z,4.15
2023-07-09T10:42:31.654Z,3.38
2023-07-09T10:45:26.008Z,3.55
2023-07-09T10:48:18.933Z,3.92
2023-07-09T10:51:15.891Z,3.95
2023-07-09T10:54:13.855Z,4.38
2023-07-09T10:57:08.023Z,4.28
2023-07-09T11:02:45.511Z,3.70
2023-07-09T11:05:34.277Z,4.68
2023-07-09T11:08:27.102Z,4.03
2023-07-09T11:11:23.816Z,4.10
2023-07-09T11:14:28.927Z,4.63
2023-07-09T11:17:20.543Z,5.80
2023-07-09T11:20:18.567Z,5.03
2023-07-09T11:23:08.270Z,4.15
2023-07-09T11:26:14.221Z,3.45
2023-07-09T11:29:18.604Z,3.90
2023-07-09T11:35:10.248Z,3.53
2023-07-09T11:38:00.002Z,3.55
2023-07-09T11:40:49.218Z,3.47
2023-07-09T11:43:38.573Z,4.22
2023-07-09T11:46:29.321Z,3.72
2023-07-09T11:49:17.127Z,3.63
2023-07-09T11:52:07.088Z,3.65
2023-07-09T11:54:55.477Z,3.35
2023-07-09T11:57:43.306Z,3.42
2023-07-09T12:00:41.369Z,3.20
2023-07-09T12:03:34.769Z,3.70
2023-07-09T12:06:25.399Z,3.75
2023-07-09T12:09:18.049Z,3.58
2023-07-09T12:12:06.720Z,3.88
2023-07-09T12:14:54.773Z,2.78
2023-07-09T12:17:42.641Z,3.70
2023-07-09T12:20:36.342Z,3.60
2023-07-09T12:23:29.217Z,4.60
2023-07-09T12:26:18.683Z,12.02
2023-07-09T12:29:10.381Z,6.13
2023-07-09T12:31:58.669Z,4.75
2023-07-09T12:34:49.810Z,4.18
2023-07-09T12:37:39.543Z,4.90
2023-07-09T12:40:31.441Z,11.10
2023-07-09T12:43:23.792Z,8.35
2023-07-09T12:46:12.282Z,3.45
2023-07-09T12:49:01.144Z,4.47
2023-07-09T12:51:48.945Z,5.13
2023-07-09T12:54:38.312Z,3.90
2023-07-09T12:57:27.826Z,3.45
2023-07-09T13:00:17.267Z,3.58
2023-07-09T13:03:05.290Z,3.13
2023-07-09T13:05:55.303Z,3.45
2023-07-09T13:08:45.407Z,3.47
2023-07-09T13:11:38.268Z,3.42
2023-07-09T13:14:28.218Z,2.85
2023-07-09T13:17:19.071Z,2.90
2023-07-09T13:20:07.314Z,3.05
2023-07-09T13:22:55.492Z,3.55
2023-07-09T13:25:48.208Z,3.35
2023-07-09T13:28:38.386Z,3.13
2023-07-09T13:31:26.463Z,3.03
2023-07-09T13:34:22.190Z,3.30
2023-07-09T13:37:14.419Z,3.38
2023-07-09T13:40:02.297Z,3.55
2023-07-09T13:42:51.137Z,3.00
2023-07-09T13:45:41.007Z,5.07
2023-07-09T13:48:30.561Z,7.57
2023-07-09T13:51:22.209Z,11.95
2023-07-09T13:54:17.587Z,6.80
2023-07-09T13:57:08.001Z,6.32
2023-07-09T13:59:56.807Z,4.30
2023-07-09T14:02:47.592Z,4.30
2023-07-09T14:05:35.669Z,3.75
2023-07-09T14:08:23.822Z,4.00
2023-07-09T14:11:13.710Z,3.90
2023-07-09T14:14:01.711Z,3.10
2023-07-09T14:16:50.765Z,3.65
2023-07-09T14:19:39.987Z,4.00
2023-07-09T14:22:32.809Z,4.80
2023-07-09T14:25:24.315Z,3.40
2023-07-09T14:28:13.961Z,5.25
2023-07-09T14:31:03.696Z,4.63
2023-07-09T14:33:51.853Z,4.22
2023-07-09T14:36:41.047Z,6.22
2023-07-09T14:39:30.092Z,5.68
2023-07-09T14:42:18.095Z,6.03
2023-07-09T14:45:08.775Z,5.30
2023-07-09T14:47:56.739Z,4.32
2023-07-09T14:50:45.437Z,4.68
2023-07-09T14:53:35.825Z,4.70
2023-07-09T14:56:23.654Z,4.55
2023-07-09T14:59:11.366Z,4.80
2023-07-09T15:01:59.290Z,6.22
2023-07-09T15:04:47.798Z,5.85
2023-07-09T15:07:35.641Z,6.65
2023-07-09T15:10:27.988Z,4.85
2023-07-09T15:13:20.842Z,5.00
2023-07-09T15:16:09.063Z,4.30
2023-07-09T15:18:56.739Z,3.88
2023-07-09T15:21:45.237Z,4.50
2023-07-09T15:24:36.510Z,3.90
2023-07-09T15:27:25.841Z,4.50
2023-07-09T15:30:20.625Z,3.80
2023-07-09T15:33:14.692Z,3.90
2023-07-09T15:38:50.538Z,11.40
2023-07-09T15:41:38.390Z,32.70
2023-07-09T15:44:27.845Z,24.15
2023-07-09T15:47:19.924Z,13.25
2023-07-09T15:50:21.171Z,15.45
2023-07-09T15:53:12.878Z,6.82
2023-07-09T15:56:03.778Z,5.05
2023-07-09T15:58:53.286Z,5.72
2023-07-09T16:01:42.664Z,4.82
2023-07-09T16:04:31.279Z,4.50
2023-07-09T16:07:19.622Z,5.03
2023-07-09T16:10:08.573Z,4.18
2023-07-09T16:12:56.527Z,4.30
2023-07-09T16:15:44.374Z,4.68
2023-07-09T16:18:33.725Z,3.60
2023-07-09T16:21:26.203Z,4.35
2023-07-09T16:24:21.960Z,4.22
2023-07-09T16:27:17.305Z,4.20
2023-07-09T16:30:13.279Z,3.78
2023-07-09T16:33:03.898Z,3.63
2023-07-09T16:35:55.681Z,4.18
2023-07-09T16:38:43.828Z,4.30
2023-07-09T16:41:31.677Z,3.63
2023-07-09T16:44:19.734Z,3.80
2023-07-09T16:47:16.675Z,3.53
2023-07-09T16:50:05.578Z,3.88
2023-07-09T16:52:56.280Z,3.97
2023-07-09T16:55:44.715Z,4.28
2023-07-09T16:58:35.802Z,3.85
2023-07-09T17:01:23.857Z,3.58
2023-07-09T17:04:22.054Z,3.72
2023-07-09T17:07:09.992Z,4.30
2023-07-09T17:09:59.921Z,4.03
2023-07-09T17:12:49.054Z,3.88
2023-07-09T17:15:43.467Z,3.85
2023-07-09T17:18:33.061Z,4.03
2023-07-09T17:21:21.119Z,4.00
2023-07-09T17:24:29.347Z,3.95
2023-07-09T17:27:18.459Z,4.00
2023-07-09T17:30:15.334Z,3.58
2023-07-09T17:33:04.172Z,3.63
2023-07-09T17:35:53.539Z,3.95
2023-07-09T17:38:42.364Z,4.63
2023-07-09T17:41:30.185Z,4.65
2023-07-09T17:44:20.338Z,4.38
2023-07-09T17:47:16.445Z,4.80
2023-07-09T17:50:04.327Z,4.90
2023-07-09T17:52:53.779Z,4.03
2023-07-09T17:55:41.494Z,5.88
2023-07-09T17:58:32.101Z,4.35
2023-07-09T18:01:21.345Z,5.28
2023-07-09T18:04:29.680Z,5.55
2023-07-09T18:07:22.632Z,5.03
2023-07-09T18:10:12.716Z,6.32
2023-07-09T18:13:06.077Z,5.90
2023-07-09T18:15:55.600Z,6.05
2023-07-09T18:18:45.040Z,5.43
2023-07-09T18:21:32.764Z,5.65
2023-07-09T18:24:22.713Z,6.78
2023-07-09T18:27:15.676Z,6.13
2023-07-09T18:30:03.983Z,5.25
2023-07-09T18:32:54.255Z,4.97
2023-07-09T18:35:43.467Z,5.28
2023-07-09T18:38:31.498Z,5.90
2023-07-09T18:41:19.953Z,4.60
2023-07-09T18:44:18.240Z,5.13
2023-07-09T18:47:13.666Z,5.68
2023-07-09T18:50:01.626Z,4.38
2023-07-09T18:52:51.192Z,4.72
2023-07-09T18:55:39.040Z,5.47
2023-07-09T18:58:28.692Z,5.38
2023-07-09T19:01:22.644Z,5.82
2023-07-09T19:07:12.188Z,6.75
2023-07-09T19:10:01.501Z,6.47
2023-07-09T19:12:53.171Z,5.25
2023-07-09T19:15:41.365Z,5.97
2023-07-09T19:18:34.263Z,5.45
2023-07-09T19:21:22.081Z,5.68
2023-07-09T19:24:20.512Z,6.05
2023-07-09T19:27:09.919Z,5.55
2023-07-09T19:29:57.728Z,5.50
2023-07-09T19:32:51.085Z,5.50
2023-07-09T19:35:39.988Z,5.90
2023-07-09T19:38:27.716Z,5.55
2023-07-09T19:41:16.720Z,4.60
2023-07-09T19:44:06.047Z,4.80
2023-07-09T19:46:53.893Z,6.00
2023-07-09T19:49:41.656Z,5.28
2023-07-09T19:52:29.520Z,5.65
2023-07-09T19:55:21.495Z,5.05
2023-07-09T19:58:09.421Z,5.93
2023-07-09T20:00:58.753Z,5.38
2023-07-09T20:03:46.771Z,5.20
2023-07-09T20:06:34.691Z,4.82
2023-07-09T20:09:22.826Z,5.28
2023-07-09T20:12:20.272Z,6.03
2023-07-09T20:15:24.161Z,5.38
2023-07-09T20:18:16.243Z,5.25
2023-07-09T20:21:15.572Z,4.50
2023-07-09T20:24:03.725Z,5.40
2023-07-09T20:26:52.451Z,6.15
2023-07-09T20:29:40.542Z,5.82
2023-07-09T20:32:28.854Z,5.47
2023-07-09T20:35:22.328Z,6.13
2023-07-09T20:38:16.388Z,5.18
2023-07-09T20:43:56.000Z,5.07
2023-07-09T20:46:44.297Z,6.00
2023-07-09T20:49:34.995Z,5.43
2023-07-09T20:52:26.679Z,5.25
2023-07-09T20:55:16.656Z,5.03
2023-07-09T20:58:04.703Z,5.95
2023-07-09T21:00:55.880Z,6.28
2023-07-09T21:03:43.779Z,5.63
2023-07-09T21:06:31.883Z,4.55
2023-07-09T21:09:25.246Z,5.50
2023-07-09T21:12:14.530Z,5.30
2023-07-09T21:15:02.366Z,4.85
2023-07-09T21:17:50.477Z,5.40
2023-07-09T21:20:38.329Z,5.28
2023-07-09T21:23:26.292Z,5.88
2023-07-09T21:26:17.185Z,5.28
2023-07-09T21:29:05.046Z,5.47
2023-07-09T21:31:55.101Z,4.72
2023-07-09T21:34:43.743Z,4.97
2023-07-09T21:37:33.427Z,5.57
2023-07-09T21:40:28.218Z,4.80
2023-07-09T21:43:17.380Z,5.40
2023-07-09T21:46:05.710Z,5.20
2023-07-09T21:48:53.719Z,4.82
2023-07-09T21:51:41.876Z,5.40
2023-07-09T21:57:24.392Z,6.32
2023-07-09T22:00:18.298Z,5.38
2023-07-09T22:03:07.498Z,5.15
2023-07-09T22:05:55.754Z,5.63
2023-07-09T22:08:47.207Z,5.10
2023-07-09T22:11:36.227Z,5.00
2023-07-09T22:14:26.974Z,5.45
2023-07-09T22:17:17.867Z,4.88
2023-07-09T22:20:08.426Z,4.25
2023-07-09T22:22:56.974Z,5.05
2023-07-09T22:25:44.744Z,4.93
2023-07-09T22:28:32.580Z,4.85
2023-07-09T22:31:20.475Z,4.18
2023-07-09T22:34:20.122Z,5.28
2023-07-09T22:37:13.866Z,4.63
2023-07-09T22:40:02.012Z,5.30
2023-07-09T22:42:50.931Z,5.40
2023-07-09T22:45:39.208Z,4.78
2023-07-09T22:48:28.069Z,4.65
2023-07-09T22:51:17.245Z,4.80
2023-07-09T22:54:05.434Z,5.10
2023-07-09T22:56:53.328Z,5.82
2023-07-09T22:59:41.069Z,5.18
2023-07-09T23:02:28.955Z,5.10
2023-07-09T23:05:17.658Z,6.00
2023-07-09T23:08:12.415Z,5.30
2023-07-09T23:11:01.837Z,5.20
2023-07-09T23:13:50.138Z,5.00
2023-07-09T23:16:38.119Z,4.85
2023-07-09T23:19:28.209Z,5.00
2023-07-09T23:22:15.920Z,5.18
2023-07-09T23:25:05.573Z,4.82
2023-07-09T23:27:55.017Z,5.18
2023-07-09T23:30:44.200Z,5.30
2023-07-09T23:33:33.589Z,5.10
2023-07-09T23:36:21.489Z,5.20
2023-07-09T23:39:11.157Z,4.85
2023-07-09T23:42:00.536Z,5.32
2023-07-09T23:44:48.421Z,5.45
2023-07-09T23:47:36.318Z,5.63
2023-07-09T23:50:25.172Z,5.53
2023-07-09T23:53:23.948Z,4.82
2023-07-09T23:56:16.511Z,5.00
2023-07-09T23:59:07.163Z,5.57
